Webcam 1 more information Webcam 1


Webcam 2 more information Webcam 2


altri nostri siti meteo:

Pomeziameteo 1Sito sul meteo

Pomeziameteo DashboardSito sul meteo

Caput FrigorisSito sul meteo

BarcellonameteoSito sul meteo

MeteoipassiSito sul meteo

ViterbometeoSito sul meteo

MeteotortoretoSito sul meteo

Stazione LineameteoSito sul meteo



Problemi di comunicazione, Vai direttamente al sito di Meteoalarm : www.meteoalarm.eu e controlla gli allarmi .


Notice: Undefined offset: 6 in /web/htdocs/www.castelnuovovomanometeo.it/home/weather28/metar/metarDisplay.php on line 76

Notice: Undefined offset: 5 in /web/htdocs/www.castelnuovovomanometeo.it/home/weather28/metar/metarDisplay.php on line 76

Report METAR

   
LIBP - Pescara
Dati ricevuti: 07-12-2022 01:20
Nebbia, Coperto  
Nebbia, Coperto  
   Vento: Sud 5.6 km/h
Vento: Sud 5.6 km/h
Temperatura: 9°C
Temperatura Vento: 8°C
P.to Rugiada: 9°C
Umidita: 100%
Barometro: 1013 hPa
Nuvole: Coperto
Visibilita: 0 km
dettagli cloud: Coperto 200 ft
LIBP 070020Z AUTO 19003KT 0100 R22/0450N FG VV002 09/09 Q1013
LIRZ - Perugia
Dati ricevuti: 07-12-2022 01:20
Nebbia, Molto nuvoloso  
Nebbia, Molto nuvoloso  
   Vento: Variabile 3.7 km/h
Vento: Variabile 3.7 km/h
Temperatura: 8°C
P.to Rugiada: 8°C
Umidita: 100%
Barometro: 1013 hPa
Nuvole: Molto nuvoloso
Visibilita: 5 km
dettagli cloud: Poche nuvole 4200 ft,
Molto nuvoloso 9300 ft,
Molto nuvoloso 11000 ft
LIRZ 070020Z AUTO VRB02KT 5000 BR FEW042/// BKN093/// BKN110/// 08/08 Q1013
LIQN - Rieti
Dati ricevuti: 06-12-2022 16:50
DATI Obsoleti
Sereno  
Sereno  
   Vento: Variabile 1.9 km/h
Vento: Variabile 1.9 km/h
Temperatura: 13°C
P.to Rugiada: 8°C
Umidita: 72%
Barometro: 1014 hPa
Visibilita: oltre 10 km
dettagli cloud: Sereno
LIQN 061550Z VRB01KT CAVOK 13/08 Q1014
LIPY - Falconara
Dati ricevuti: 07-12-2022 01:20
Nebbia, Coperto  
Nebbia, Coperto  
   Vento: Variabile 3.7 km/h
Vento: Variabile 3.7 km/h
Temperatura: 10°C
P.to Rugiada: 9°C
Umidita: 94%
Barometro: 1013 hPa
Nuvole: Coperto
Visibilita: 5 km
dettagli cloud: Coperto 800 ft
LIPY 070020Z AUTO VRB02KT 5000 BR OVC008/// 10/09 Q1013
  

Script sviluppato da  Saratoga-weather.org Adattato per il modello da  Weerstation Leuven

Potete trovare le nostre info meteo anche a:

Weather Underground

AWEKAS

Citizen Weather Observer Program (CWOP)

HAMweather, WeatherForYou, PWS Weather

Strumentazione usata:

Stazione meteo
Oregon 928

Programma gestore dati meteo
WVIEW

Server per i dati meteo
Pc-WDS5

Oregon 928

WVIEW

Pc-WDS5